nws-alerts: Checking more than four warning/county codes can delay the loading of your pages. You should use a cron job to get the data.

Nearby METAR Reports

 

KSJC - San Jose, California, USA
Distance from station: NE 9mi, 14km
Updated: Sat, 17-Feb-2018 7:53pm EST
Clear
Clear
 Wind from NW
Wind: NW 9 mph , 15 km/h
Temperature: 66°F , 19°C
Dew Point: 43°F , 6°C
Humidity: 43%
Barometer: 30.06 inHg , 1017.9 hPa
Clouds: Clear
Visibility: 10 miles , 16 km
2018/02/18 00:53 KSJC 180053Z 31008KT 10SM CLR 19/06 A3006 RMK AO2 SLP177 T01890061
KNUQ - Moffett Nas/Mtn, California, USA
Distance from station: N 9mi, 14km
Updated: Sat, 17-Feb-2018 7:56pm EST
Clear
Clear
 Wind from NNW
Wind: NNW 8 mph , 13 km/h
Temperature: 61°F , 16°C
Dew Point: 48°F , 9°C
Humidity: 63%
Barometer: 30.07 inHg , 1018.3 hPa
Clouds: Clear
Visibility: 10 miles , 16 km
2018/02/18 00:56 KNUQ 180056Z 34007KT 10SM CLR 16/09 A3007 RMK AO2 SLP183 T01610089
 
KPAO - Palo Alto, California, USA
Distance from station: NNW 14mi, 23km
Updated: Sat, 17-Feb-2018 7:47pm EST
Clear
Clear
 Wind from NNW
Wind: NNW 7 mph , 11 km/h
Clouds: Clear
Visibility: 10 miles , 16 km
2018/02/18 00:47 KPAO 180047Z 33006KT 10SM SKC --/-- A3006
KRHV - San Jose/Reid, California, USA
Distance from station: ENE 12mi, 19km
Updated: Sat, 17-Feb-2018 7:50pm EST
Clear
Clear
 Wind from NNW
Wind: NNW 12 mph , 19 km/h
Temperature: 66°F , 19°C
Dew Point: 41°F , 5°C
Humidity: 40%
Barometer: 30.03 inHg , 1016.9 hPa
Clouds: Clear
Visibility: 10 miles , 16 km
2018/02/18 00:50 KRHV 180050Z 34010KT 10SM SKC 19/05 A3003
 
KOAK - Oakland, California, USA
Distance from station: NNW 31mi, 50km
Updated: Sat, 17-Feb-2018 7:53pm EST
Clear
Clear
 Wind from WNW
Wind: WNW 10 mph , 17 km/h
Temperature: 61°F , 16°C
Dew Point: 45°F , 7°C
Humidity: 55%
Barometer: 30.07 inHg , 1018.3 hPa
Clouds: Clear
Visibility: 10 miles , 16 km
2018/02/18 00:53 KOAK 180053Z 29009KT 10SM CLR 16/07 A3007 RMK AO2 SLP181 T01560072
KSQL - San Carlos Airpo, California, USA
Distance from station: NW 21mi, 34km
Updated: Sat, 17-Feb-2018 7:50pm EST
Clear
Clear
 Wind from NW
Wind: NW 6 mph , 9 km/h
Temperature: 66°F , 19°C
Dew Point: 41°F , 5°C
Humidity: 40%
Barometer: 30.06 inHg , 1017.9 hPa
Clouds: Clear
Visibility: 10 miles , 16 km
2018/02/18 00:50 KSQL 180050Z 32005KT 10SM SKC 19/05 A3006
 
KSFO - San Francisco, California, USA
Distance from station: NW 30mi, 49km
Updated: Sat, 17-Feb-2018 7:56pm EST
Few Clouds
Few Clouds
 Wind from W
Wind: W 20 mph , 31 km/h
Temperature: 57°F , 14°C
Dew Point: 46°F , 8°C
Humidity: 67%
Barometer: 30.06 inHg , 1017.9 hPa
Clouds: Few Clouds
Visibility: 10 miles , 16 km
Cloud details: Few Clouds 900 ft
2018/02/18 00:56 KSFO 180056Z 27017KT 10SM FEW009 14/08 A3006 RMK AO2 SLP180 T01390078
KE16 - San Martin, California, USA
Distance from station: ESE 27mi, 43km
Updated: Sat, 17-Feb-2018 8:15pm EST
Clear
Clear
 Wind from NW
Wind: NW 9 mph , 15 km/h
Temperature: 66°F , 19°C
Dew Point: 36°F , 2°C
Humidity: 32%
Barometer: 30.06 inHg , 1017.9 hPa
Clouds: Clear
Visibility: 10 miles , 16 km
2018/02/18 01:15 KE16 180115Z AUTO 32008KT 10SM CLR 19/02 A3006 RMK AO2
 
KWVI - Watsonville, California, USA
Distance from station: SSE 27mi, 44km
Updated: Sat, 17-Feb-2018 7:53pm EST
Clear
Clear
 Wind from S
Wind: S 5 mph , 7 km/h
Temperature: 57°F , 14°C
Dew Point: 48°F , 9°C
Humidity: 72%
Barometer: 30.07 inHg , 1018.3 hPa
Clouds: Clear
Visibility: 9 miles , 14 km
2018/02/18 00:53 KWVI 180053Z AUTO 19004KT 9SM CLR 14/09 A3007 RMK AO2 SLP182 T01390089
KHAF - Half Moon Bay, California, USA
Distance from station: WNW 31mi, 50km
Updated: Sat, 17-Feb-2018 8:15pm EST
Mist, Clear
Mist, Clear
 Wind from NNW
Wind: NNW 13 mph , 20 km/h, Gust: 17 mph , 28 km/h
Temperature: 54°F , 12°C
Dew Point: 48°F , 9°C
Humidity: 82%
Barometer: 30.06 inHg , 1017.9 hPa
Summary: Mist
Clouds: Clear
Visibility: 6 miles , 10 km
2018/02/18 01:15 KHAF 180115Z AUTO 33011G15KT 6SM BR CLR 12/09 A3006 RMK AO2
 
KHWD - Hayward, California, USA
Distance from station: N 28mi, 44km
Updated: Sat, 17-Feb-2018 7:54pm EST
Clear
Clear
 Wind from W
Wind: W 8 mph , 13 km/h
Temperature: 59°F , 15°C
Dew Point: 45°F , 7°C
Humidity: 59%
Barometer: 30.06 inHg , 1017.9 hPa
Clouds: Clear
Visibility: 10 miles , 16 km
2018/02/18 00:54 KHWD 180054Z 28007KT 10SM CLR 15/07 A3006 RMK AO2 SLP190 T01500072
KLVK - Livermore, California, USA
Distance from station: NNE 31mi, 51km
Updated: Sat, 17-Feb-2018 7:53pm EST
Clear
Clear
 Wind from W
Wind: W 10 mph , 17 km/h
Temperature: 66°F , 19°C
Dew Point: 43°F , 6°C
Humidity: 43%
Barometer: 30.04 inHg , 1017.3 hPa
Clouds: Clear
Visibility: 10 miles , 16 km
2018/02/18 00:53 KLVK 180053Z 27009KT 10SM CLR 19/06 A3004 RMK AO2 SLP172 T01890061